Kezdőlap
METAR-TAF:

METAR-TAF

Repülőterek :

South Wood County Airport (Alexander Field)

Wisconsin Rapids, Wisconsin, Amerikai Egyesült Államok

földrajzi szélesség: 44-21-33N, földrajzi hosszúság: 089-50-13W, magasság: 311 m

Jelenlegi meteorológiai megfigyelések

A jelentés 26 perccel ezelõtt készült, 08:38 UTC
Szélcsend
Hőmérséklet 21°C
Páratartalom 94%
Légköri nyomás 1007 hPa
Látótávolság: 12.9 km
Szakadozott felhőzet 1300 lábon
Borult 1800 lábon

METAR: KISW 180838Z AUTO 00000KT 8SM BKN013 OVC018 21/20 A2974 RMK AO2 T02060200

Idő: 04:04 (09:04 UTC)


TAF: hiányzik

Meteorológiai megfigyelések és előrejelzések több, mint 4000 repülőtéren (METAR és TAF jelentéseket).

A térképen piros és sárga pontok jelzik az elérhető meteorológiai állomásokat.

Mozgassa az egeret a pont fölött, hogy megjelenjen az állomás neve.

Azután kattintson az időjárási megfigyelések és előrejelzések megtekintéséhez.

A térkép megváltoztatása: kattintson a fekete keresztel jelölt zöld gombra ráközelítéshez, a vonallal jelölt zöld gombra távolításhoz, vagy a zöld nyilakra a szomszédos térképek eléréséhez.


METAR-TAF: